sensor_id;sensor_type;location;lat;lon;timestamp;pressure;altitude;pressure_sealevel;temperature;humidity
25855;BME280;13680;49.936;11.344;2022-09-03T00:02:12;96627.69;;;15.61;52.05
25855;BME280;13680;49.936;11.344;2022-09-03T00:04:53;96629.81;;;15.55;52.49
25855;BME280;13680;49.936;11.344;2022-09-03T00:07:31;96627.91;;;15.55;52.45
25855;BME280;13680;49.936;11.344;2022-09-03T00:10:04;96621.22;;;15.53;52.44
25855;BME280;13680;49.936;11.344;2022-09-03T00:12:32;96627.00;;;15.51;52.39
25855;BME280;13680;49.936;11.344;2022-09-03T00:15:05;96629.09;;;15.46;52.48
25855;BME280;13680;49.936;11.344;2022-09-03T00:17:35;96627.31;;;15.50;52.58
25855;BME280;13680;49.936;11.344;2022-09-03T00:20:12;96633.97;;;15.52;52.50
25855;BME280;13680;49.936;11.344;2022-09-03T00:22:54;96640.97;;;15.41;52.80
25855;BME280;13680;49.936;11.344;2022-09-03T00:25:28;96641.63;;;15.38;52.89
25855;BME280;13680;49.936;11.344;2022-09-03T00:27:56;96633.91;;;15.28;53.26
25855;BME280;13680;49.936;11.344;2022-09-03T00:30:23;96636.88;;;15.35;53.26
25855;BME280;13680;49.936;11.344;2022-09-03T00:33:07;96629.38;;;15.19;53.59
25855;BME280;13680;49.936;11.344;2022-09-03T00:35:52;96628.56;;;15.19;53.68
25855;BME280;13680;49.936;11.344;2022-09-03T00:38:19;96626.31;;;15.00;53.89
25855;BME280;13680;49.936;11.344;2022-09-03T00:41:08;96627.25;;;15.04;54.07
25855;BME280;13680;49.936;11.344;2022-09-03T00:44:03;96620.00;;;15.17;53.74
25855;BME280;13680;49.936;11.344;2022-09-03T00:47:08;96617.84;;;15.22;53.65
25855;BME280;13680;49.936;11.344;2022-09-03T00:52:07;96616.16;;;14.97;54.00
25855;BME280;13680;49.936;11.344;2022-09-03T00:55:12;96614.50;;;15.04;54.39
25855;BME280;13680;49.936;11.344;2022-09-03T01:00:35;96607.56;;;14.95;54.37
25855;BME280;13680;49.936;11.344;2022-09-03T01:03:10;96605.00;;;14.98;54.21
25855;BME280;13680;49.936;11.344;2022-09-03T01:08:14;96618.34;;;15.03;54.27
25855;BME280;13680;49.936;11.344;2022-09-03T01:13:21;96621.44;;;15.14;54.14
25855;BME280;13680;49.936;11.344;2022-09-03T01:18:59;96623.69;;;15.12;54.44
25855;BME280;13680;49.936;11.344;2022-09-03T01:26:44;96619.00;;;15.00;54.65
25855;BME280;13680;49.936;11.344;2022-09-03T01:37:10;96629.50;;;15.02;54.65
25855;BME280;13680;49.936;11.344;2022-09-03T01:42:32;96621.44;;;14.93;54.58
25855;BME280;13680;49.936;11.344;2022-09-03T01:50:38;96625.28;;;14.92;54.47
25855;BME280;13680;49.936;11.344;2022-09-03T01:53:17;96636.22;;;14.75;55.24
25855;BME280;13680;49.936;11.344;2022-09-03T02:01:52;96630.19;;;14.78;55.62
25855;BME280;13680;49.936;11.344;2022-09-03T02:04:21;96625.34;;;14.83;54.94
25855;BME280;13680;49.936;11.344;2022-09-03T02:06:49;96628.72;;;14.80;55.26
25855;BME280;13680;49.936;11.344;2022-09-03T02:09:19;96624.91;;;14.81;55.39
25855;BME280;13680;49.936;11.344;2022-09-03T02:11:50;96615.13;;;14.89;54.90
25855;BME280;13680;49.936;11.344;2022-09-03T02:14:18;96616.88;;;14.85;55.29
25855;BME280;13680;49.936;11.344;2022-09-03T02:16:43;96616.97;;;14.76;55.03
25855;BME280;13680;49.936;11.344;2022-09-03T02:19:12;96615.47;;;14.57;56.03
25855;BME280;13680;49.936;11.344;2022-09-03T02:21:51;96620.53;;;14.68;55.49
25855;BME280;13680;49.936;11.344;2022-09-03T02:24:18;96617.84;;;14.59;56.09
25855;BME280;13680;49.936;11.344;2022-09-03T02:26:44;96613.94;;;14.78;55.55
25855;BME280;13680;49.936;11.344;2022-09-03T02:29:13;96617.97;;;14.63;55.57
25855;BME280;13680;49.936;11.344;2022-09-03T02:31:39;96618.34;;;14.82;55.20
25855;BME280;13680;49.936;11.344;2022-09-03T02:34:05;96626.66;;;14.77;55.06
25855;BME280;13680;49.936;11.344;2022-09-03T02:36:45;96627.59;;;14.81;55.05
25855;BME280;13680;49.936;11.344;2022-09-03T02:39:12;96621.84;;;14.83;55.17
25855;BME280;13680;49.936;11.344;2022-09-03T02:41:38;96615.38;;;14.75;55.07
25855;BME280;13680;49.936;11.344;2022-09-03T02:46:43;96621.56;;;14.76;55.17
25855;BME280;13680;49.936;11.344;2022-09-03T02:49:10;96617.19;;;14.62;55.58
25855;BME280;13680;49.936;11.344;2022-09-03T02:51:38;96627.38;;;14.65;55.92
25855;BME280;13680;49.936;11.344;2022-09-03T02:54:04;96622.28;;;14.64;55.83
25855;BME280;13680;49.936;11.344;2022-09-03T02:56:30;96619.41;;;14.69;55.45
25855;BME280;13680;49.936;11.344;2022-09-03T02:58:55;96621.03;;;14.61;55.46
25855;BME280;13680;49.936;11.344;2022-09-03T03:01:21;96618.94;;;14.67;54.84
25855;BME280;13680;49.936;11.344;2022-09-03T03:03:47;96612.56;;;14.63;55.35
25855;BME280;13680;49.936;11.344;2022-09-03T03:06:12;96606.53;;;14.66;55.37
25855;BME280;13680;49.936;11.344;2022-09-03T03:08:38;96599.69;;;14.68;55.26
25855;BME280;13680;49.936;11.344;2022-09-03T03:11:04;96593.47;;;14.68;55.11
25855;BME280;13680;49.936;11.344;2022-09-03T03:13:30;96604.16;;;14.64;55.40
25855;BME280;13680;49.936;11.344;2022-09-03T03:16:04;96609.00;;;14.50;55.26
25855;BME280;13680;49.936;11.344;2022-09-03T03:18:32;96603.53;;;14.59;55.50
25855;BME280;13680;49.936;11.344;2022-09-03T03:21:04;96603.88;;;14.57;55.98
25855;BME280;13680;49.936;11.344;2022-09-03T03:23:31;96596.72;;;14.52;55.40
25855;BME280;13680;49.936;11.344;2022-09-03T03:26:03;96589.88;;;14.55;55.55
25855;BME280;13680;49.936;11.344;2022-09-03T03:28:29;96603.44;;;14.46;55.89
25855;BME280;13680;49.936;11.344;2022-09-03T03:31:08;96604.38;;;14.50;55.99
25855;BME280;13680;49.936;11.344;2022-09-03T03:33:35;96607.88;;;14.51;55.74
25855;BME280;13680;49.936;11.344;2022-09-03T03:36:06;96605.44;;;14.58;55.44
25855;BME280;13680;49.936;11.344;2022-09-03T03:38:32;96600.69;;;14.55;55.82
25855;BME280;13680;49.936;11.344;2022-09-03T03:40:57;96611.44;;;14.64;55.34
25855;BME280;13680;49.936;11.344;2022-09-03T03:43:22;96605.97;;;14.51;55.33
25855;BME280;13680;49.936;11.344;2022-09-03T03:45:56;96605.44;;;14.58;55.78
25855;BME280;13680;49.936;11.344;2022-09-03T03:48:21;96605.22;;;14.63;55.69
25855;BME280;13680;49.936;11.344;2022-09-03T03:50:46;96603.66;;;14.71;55.20
25855;BME280;13680;49.936;11.344;2022-09-03T03:53:12;96606.25;;;14.59;55.75
25855;BME280;13680;49.936;11.344;2022-09-03T03:55:37;96601.66;;;14.50;55.99
25855;BME280;13680;49.936;11.344;2022-09-03T03:58:03;96604.38;;;14.50;55.67
25855;BME280;13680;49.936;11.344;2022-09-03T04:00:28;96604.69;;;14.49;56.03
25855;BME280;13680;49.936;11.344;2022-09-03T04:02:53;96605.50;;;14.49;55.80
25855;BME280;13680;49.936;11.344;2022-09-03T04:05:19;96598.31;;;14.53;55.69
25855;BME280;13680;49.936;11.344;2022-09-03T04:07:44;96593.53;;;14.50;56.15
25855;BME280;13680;49.936;11.344;2022-09-03T04:10:10;96594.22;;;14.47;56.25
25855;BME280;13680;49.936;11.344;2022-09-03T04:12:35;96596.63;;;14.40;56.00
25855;BME280;13680;49.936;11.344;2022-09-03T04:15:01;96596.59;;;14.49;55.66
25855;BME280;13680;49.936;11.344;2022-09-03T04:17:26;96599.53;;;14.35;55.79
25855;BME280;13680;49.936;11.344;2022-09-03T04:19:52;96604.13;;;14.43;55.75
25855;BME280;13680;49.936;11.344;2022-09-03T04:22:17;96598.31;;;14.53;55.86
25855;BME280;13680;49.936;11.344;2022-09-03T04:24:44;96607.25;;;14.45;56.06
25855;BME280;13680;49.936;11.344;2022-09-03T04:27:10;96600.28;;;14.44;56.18
25855;BME280;13680;49.936;11.344;2022-09-03T04:29:35;96600.47;;;14.39;56.10
25855;BME280;13680;49.936;11.344;2022-09-03T04:32:01;96604.91;;;14.44;56.60
25855;BME280;13680;49.936;11.344;2022-09-03T04:34:44;96600.25;;;14.23;56.19
25855;BME280;13680;49.936;11.344;2022-09-03T04:37:10;96601.50;;;14.26;56.32
25855;BME280;13680;49.936;11.344;2022-09-03T04:39:35;96605.81;;;14.27;56.29
25855;BME280;13680;49.936;11.344;2022-09-03T04:42:01;96607.59;;;14.22;56.34
25855;BME280;13680;49.936;11.344;2022-09-03T04:44:27;96610.09;;;14.28;56.96
25855;BME280;13680;49.936;11.344;2022-09-03T04:46:52;96602.56;;;14.33;56.66
25855;BME280;13680;49.936;11.344;2022-09-03T04:49:17;96610.09;;;14.28;56.30
25855;BME280;13680;49.936;11.344;2022-09-03T04:51:43;96609.47;;;14.22;56.59
25855;BME280;13680;49.936;11.344;2022-09-03T04:54:09;96606.88;;;14.34;56.13
25855;BME280;13680;49.936;11.344;2022-09-03T04:56:35;96613.59;;;14.28;56.61
25855;BME280;13680;49.936;11.344;2022-09-03T04:59:05;96610.22;;;14.31;55.90
25855;BME280;13680;49.936;11.344;2022-09-03T05:01:33;96610.13;;;14.49;55.48
25855;BME280;13680;49.936;11.344;2022-09-03T05:03:59;96622.16;;;14.30;56.34
25855;BME280;13680;49.936;11.344;2022-09-03T05:06:25;96612.63;;;14.33;56.25
25855;BME280;13680;49.936;11.344;2022-09-03T05:08:52;96623.69;;;14.40;56.60
25855;BME280;13680;49.936;11.344;2022-09-03T05:11:19;96625.06;;;14.25;56.52
25855;BME280;13680;49.936;11.344;2022-09-03T05:13:49;96624.13;;;14.51;56.13
25855;BME280;13680;49.936;11.344;2022-09-03T05:16:16;96624.56;;;14.53;55.97
25855;BME280;13680;49.936;11.344;2022-09-03T05:18:42;96631.59;;;14.24;56.71
25855;BME280;13680;49.936;11.344;2022-09-03T05:21:10;96630.78;;;14.23;57.10
25855;BME280;13680;49.936;11.344;2022-09-03T05:23:43;96632.09;;;14.47;56.38
25855;BME280;13680;49.936;11.344;2022-09-03T05:26:14;96629.47;;;14.60;56.10
25855;BME280;13680;49.936;11.344;2022-09-03T05:28:41;96626.44;;;14.61;55.54
25855;BME280;13680;49.936;11.344;2022-09-03T05:31:09;96626.22;;;14.75;55.61
25855;BME280;13680;49.936;11.344;2022-09-03T05:33:46;96626.59;;;14.65;55.61
25855;BME280;13680;49.936;11.344;2022-09-03T05:36:14;96628.00;;;14.71;55.59
25855;BME280;13680;49.936;11.344;2022-09-03T05:38:40;96634.75;;;14.56;56.04
25855;BME280;13680;49.936;11.344;2022-09-03T05:41:07;96625.78;;;14.64;56.00
25855;BME280;13680;49.936;11.344;2022-09-03T05:43:33;96632.16;;;14.89;55.82
25855;BME280;13680;49.936;11.344;2022-09-03T05:46:02;96626.34;;;14.79;55.36
25855;BME280;13680;49.936;11.344;2022-09-03T05:48:29;96626.09;;;14.42;56.33
25855;BME280;13680;49.936;11.344;2022-09-03T05:51:05;96627.41;;;14.86;55.59
25855;BME280;13680;49.936;11.344;2022-09-03T05:53:33;96626.53;;;14.95;55.31
25855;BME280;13680;49.936;11.344;2022-09-03T05:56:00;96628.69;;;15.01;55.25
25855;BME280;13680;49.936;11.344;2022-09-03T05:58:33;96626.13;;;15.05;54.85
25855;BME280;13680;49.936;11.344;2022-09-03T06:01:03;96631.41;;;15.22;54.46
25855;BME280;13680;49.936;11.344;2022-09-03T06:03:33;96624.59;;;15.16;54.64
25855;BME280;13680;49.936;11.344;2022-09-03T06:05:59;96630.94;;;15.20;54.88
25855;BME280;13680;49.936;11.344;2022-09-03T06:08:24;96626.19;;;15.17;55.20
25855;BME280;13680;49.936;11.344;2022-09-03T06:10:57;96627.97;;;15.13;54.84
25855;BME280;13680;49.936;11.344;2022-09-03T06:13:23;96631.97;;;15.28;54.30
25855;BME280;13680;49.936;11.344;2022-09-03T06:15:48;96628.19;;;15.42;54.32
25855;BME280;13680;49.936;11.344;2022-09-03T06:18:14;96629.72;;;15.64;53.62
25855;BME280;13680;49.936;11.344;2022-09-03T06:20:39;96633.22;;;15.64;53.65
25855;BME280;13680;49.936;11.344;2022-09-03T06:23:04;96632.84;;;15.53;53.71
25855;BME280;13680;49.936;11.344;2022-09-03T06:25:30;96628.22;;;15.87;53.45
25855;BME280;13680;49.936;11.344;2022-09-03T06:27:56;96635.84;;;15.73;53.98
25855;BME280;13680;49.936;11.344;2022-09-03T06:30:21;96629.41;;;15.65;53.44
25855;BME280;13680;49.936;11.344;2022-09-03T06:32:48;96619.66;;;16.10;52.95
25855;BME280;13680;49.936;11.344;2022-09-03T06:35:15;96618.84;;;16.34;52.26
25855;BME280;13680;49.936;11.344;2022-09-03T06:37:41;96621.22;;;16.36;52.42
25855;BME280;13680;49.936;11.344;2022-09-03T06:40:08;96616.50;;;16.33;52.07
25855;BME280;13680;49.936;11.344;2022-09-03T06:42:37;96620.09;;;16.37;51.81
25855;BME280;13680;49.936;11.344;2022-09-03T06:45:03;96619.91;;;16.83;51.10
25855;BME280;13680;49.936;11.344;2022-09-03T06:47:31;96614.97;;;17.13;50.24
25855;BME280;13680;49.936;11.344;2022-09-03T06:49:58;96615.66;;;17.10;49.99
25855;BME280;13680;49.936;11.344;2022-09-03T06:52:24;96614.38;;;16.92;50.83
25855;BME280;13680;49.936;11.344;2022-09-03T06:54:49;96617.00;;;17.16;49.94
25855;BME280;13680;49.936;11.344;2022-09-03T06:57:15;96607.28;;;17.60;49.45
25855;BME280;13680;49.936;11.344;2022-09-03T06:59:40;96612.56;;;17.69;49.00
25855;BME280;13680;49.936;11.344;2022-09-03T07:02:08;96612.97;;;17.55;49.22
25855;BME280;13680;49.936;11.344;2022-09-03T07:04:33;96608.38;;;18.03;48.01
25855;BME280;13680;49.936;11.344;2022-09-03T07:06:59;96621.28;;;18.06;47.83
25855;BME280;13680;49.936;11.344;2022-09-03T07:09:25;96619.44;;;18.10;47.73
25855;BME280;13680;49.936;11.344;2022-09-03T07:11:51;96630.78;;;17.68;48.14
25855;BME280;13680;49.936;11.344;2022-09-03T07:14:18;96626.56;;;17.99;47.96
25855;BME280;13680;49.936;11.344;2022-09-03T07:16:44;96632.47;;;18.37;47.25
25855;BME280;13680;49.936;11.344;2022-09-03T07:19:10;96634.16;;;18.41;47.17
25855;BME280;13680;49.936;11.344;2022-09-03T07:21:37;96627.50;;;18.74;46.55
25855;BME280;13680;49.936;11.344;2022-09-03T07:24:06;96636.09;;;18.25;47.56
25855;BME280;13680;49.936;11.344;2022-09-03T07:26:35;96633.91;;;18.66;47.07
25855;BME280;13680;49.936;11.344;2022-09-03T07:29:03;96632.28;;;18.97;46.39
25855;BME280;13680;49.936;11.344;2022-09-03T07:31:32;96626.41;;;19.14;45.89
25855;BME280;13680;49.936;11.344;2022-09-03T07:34:02;96627.53;;;18.94;45.97
25855;BME280;13680;49.936;11.344;2022-09-03T07:36:40;96622.34;;;19.05;47.23
25855;BME280;13680;49.936;11.344;2022-09-03T07:39:07;96632.91;;;18.90;46.97
25855;BME280;13680;49.936;11.344;2022-09-03T07:41:33;96633.59;;;19.23;46.64
25855;BME280;13680;49.936;11.344;2022-09-03T07:43:58;96620.38;;;19.44;46.21
25855;BME280;13680;49.936;11.344;2022-09-03T07:46:29;96624.19;;;19.63;45.94
25855;BME280;13680;49.936;11.344;2022-09-03T07:48:56;96616.41;;;19.85;44.51
25855;BME280;13680;49.936;11.344;2022-09-03T07:51:26;96621.00;;;20.27;44.20
25855;BME280;13680;49.936;11.344;2022-09-03T07:53:57;96617.63;;;20.34;43.15
25855;BME280;13680;49.936;11.344;2022-09-03T07:56:24;96616.78;;;19.83;43.13
25855;BME280;13680;49.936;11.344;2022-09-03T07:58:51;96616.69;;;19.99;43.72
25855;BME280;13680;49.936;11.344;2022-09-03T08:01:19;96617.38;;;20.19;44.20
25855;BME280;13680;49.936;11.344;2022-09-03T08:03:47;96615.41;;;20.43;43.31
25855;BME280;13680;49.936;11.344;2022-09-03T08:06:14;96612.19;;;20.37;43.08
25855;BME280;13680;49.936;11.344;2022-09-03T08:08:40;96619.38;;;20.72;41.82
25855;BME280;13680;49.936;11.344;2022-09-03T08:11:13;96621.78;;;20.77;42.29
25855;BME280;13680;49.936;11.344;2022-09-03T08:13:40;96616.75;;;20.56;42.98
25855;BME280;13680;49.936;11.344;2022-09-03T08:16:12;96612.59;;;20.93;42.42
25855;BME280;13680;49.936;11.344;2022-09-03T08:18:38;96614.56;;;21.26;41.35
25855;BME280;13680;49.936;11.344;2022-09-03T08:21:05;96618.34;;;21.15;40.96
25855;BME280;13680;49.936;11.344;2022-09-03T08:23:32;96617.50;;;21.45;40.89
25855;BME280;13680;49.936;11.344;2022-09-03T08:25:59;96614.00;;;21.48;40.53
25855;BME280;13680;49.936;11.344;2022-09-03T08:28:24;96611.19;;;21.74;40.04
25855;BME280;13680;49.936;11.344;2022-09-03T08:30:49;96613.53;;;22.17;40.41
25855;BME280;13680;49.936;11.344;2022-09-03T08:33:15;96610.56;;;22.37;39.71
25855;BME280;13680;49.936;11.344;2022-09-03T08:35:40;96615.84;;;22.15;39.24
25855;BME280;13680;49.936;11.344;2022-09-03T08:38:05;96614.47;;;21.53;40.46
25855;BME280;13680;49.936;11.344;2022-09-03T08:40:36;96616.09;;;21.58;40.68
25855;BME280;13680;49.936;11.344;2022-09-03T08:43:28;96619.25;;;21.60;41.14
25855;BME280;13680;49.936;11.344;2022-09-03T08:45:54;96624.31;;;21.99;40.23
25855;BME280;13680;49.936;11.344;2022-09-03T08:48:20;96618.00;;;22.40;38.72
25855;BME280;13680;49.936;11.344;2022-09-03T08:50:50;96619.84;;;22.29;39.35
25855;BME280;13680;49.936;11.344;2022-09-03T08:55:51;96616.66;;;22.75;38.96
25855;BME280;13680;49.936;11.344;2022-09-03T08:58:29;96613.22;;;22.89;38.84
25855;BME280;13680;49.936;11.344;2022-09-03T09:03:41;96608.88;;;24.19;36.58
25855;BME280;13680;49.936;11.344;2022-09-03T09:06:25;96603.75;;;24.40;36.21
25855;BME280;13680;49.936;11.344;2022-09-03T09:09:06;96601.41;;;24.24;36.17
25855;BME280;13680;49.936;11.344;2022-09-03T09:11:54;96593.84;;;24.89;35.04
25855;BME280;13680;49.936;11.344;2022-09-03T09:23:10;96588.22;;;25.14;35.49
25855;BME280;13680;49.936;11.344;2022-09-03T09:25:46;96591.28;;;25.35;34.81
25855;BME280;13680;49.936;11.344;2022-09-03T09:28:21;96587.00;;;25.26;33.99
25855;BME280;13680;49.936;11.344;2022-09-03T09:30:48;96587.03;;;25.23;34.78
25855;BME280;13680;49.936;11.344;2022-09-03T09:33:15;96577.00;;;25.61;33.74
25855;BME280;13680;49.936;11.344;2022-09-03T09:35:41;96574.78;;;25.42;35.04
25855;BME280;13680;49.936;11.344;2022-09-03T09:38:09;96579.56;;;25.20;34.63
25855;BME280;13680;49.936;11.344;2022-09-03T09:40:38;96569.19;;;25.53;32.35
25855;BME280;13680;49.936;11.344;2022-09-03T09:45:36;96563.03;;;25.23;33.55
25855;BME280;13680;49.936;11.344;2022-09-03T09:48:08;96557.81;;;26.00;31.75
25855;BME280;13680;49.936;11.344;2022-09-03T09:50:35;96559.00;;;25.98;32.14
25855;BME280;13680;49.936;11.344;2022-09-03T09:53:08;96565.97;;;26.18;32.31
25855;BME280;13680;49.936;11.344;2022-09-03T09:55:53;96563.94;;;26.25;32.31
25855;BME280;13680;49.936;11.344;2022-09-03T09:58:21;96560.66;;;26.38;32.24
25855;BME280;13680;49.936;11.344;2022-09-03T10:01:17;96560.97;;;26.47;31.75
25855;BME280;13680;49.936;11.344;2022-09-03T10:03:55;96550.03;;;26.40;32.15
25855;BME280;13680;49.936;11.344;2022-09-03T10:06:26;96559.53;;;25.86;32.70
25855;BME280;13680;49.936;11.344;2022-09-03T10:09:16;96549.69;;;26.30;32.44
25855;BME280;13680;49.936;11.344;2022-09-03T10:11:45;96548.28;;;26.15;33.06
25855;BME280;13680;49.936;11.344;2022-09-03T10:14:22;96551.06;;;26.53;31.91
25855;BME280;13680;49.936;11.344;2022-09-03T10:17:04;96546.06;;;26.79;31.16
25855;BME280;13680;49.936;11.344;2022-09-03T10:19:59;96551.84;;;26.92;30.57
25855;BME280;13680;49.936;11.344;2022-09-03T10:28:26;96540.69;;;26.65;32.38
25855;BME280;13680;49.936;11.344;2022-09-03T10:31:07;96533.31;;;26.54;32.15
25855;BME280;13680;49.936;11.344;2022-09-03T10:36:25;96529.34;;;26.93;32.11
25855;BME280;13680;49.936;11.344;2022-09-03T10:38:59;96528.97;;;26.91;31.52
25855;BME280;13680;49.936;11.344;2022-09-03T10:46:27;96521.31;;;28.12;30.04
25855;BME280;13680;49.936;11.344;2022-09-03T10:49:27;96510.16;;;28.60;28.59
25855;BME280;13680;49.936;11.344;2022-09-03T10:52:19;96519.03;;;28.51;29.49
25855;BME280;13680;49.936;11.344;2022-09-03T11:00:05;96511.34;;;28.82;28.51
25855;BME280;13680;49.936;11.344;2022-09-03T11:05:21;96510.53;;;28.82;28.28
25855;BME280;13680;49.936;11.344;2022-09-03T11:07:51;96508.72;;;29.48;27.17
25855;BME280;13680;49.936;11.344;2022-09-03T11:10:33;96511.66;;;29.41;26.81
25855;BME280;13680;49.936;11.344;2022-09-03T11:13:16;96507.34;;;29.57;26.23
25855;BME280;13680;49.936;11.344;2022-09-03T11:15:57;96505.63;;;29.46;26.75
25855;BME280;13680;49.936;11.344;2022-09-03T11:18:40;96499.91;;;29.37;27.77
25855;BME280;13680;49.936;11.344;2022-09-03T11:21:10;96495.22;;;29.67;26.65
25855;BME280;13680;49.936;11.344;2022-09-03T11:23:40;96494.44;;;29.99;26.77
25855;BME280;13680;49.936;11.344;2022-09-03T11:26:10;96502.13;;;30.08;25.21
25855;BME280;13680;49.936;11.344;2022-09-03T11:28:53;96489.91;;;30.94;24.36
25855;BME280;13680;49.936;11.344;2022-09-03T11:34:26;96492.00;;;29.85;25.63
25855;BME280;13680;49.936;11.344;2022-09-03T11:39:42;96487.53;;;31.22;24.77
25855;BME280;13680;49.936;11.344;2022-09-03T11:42:11;96481.16;;;31.60;24.14
25855;BME280;13680;49.936;11.344;2022-09-03T11:47:13;96474.53;;;31.44;23.39
25855;BME280;13680;49.936;11.344;2022-09-03T11:49:48;96474.50;;;30.93;24.57
25855;BME280;13680;49.936;11.344;2022-09-03T11:52:28;96471.47;;;30.87;24.82
25855;BME280;13680;49.936;11.344;2022-09-03T11:54:54;96466.38;;;30.98;25.29
25855;BME280;13680;49.936;11.344;2022-09-03T11:57:27;96468.69;;;30.74;25.97
25855;BME280;13680;49.936;11.344;2022-09-03T11:59:54;96467.91;;;30.74;25.71
25855;BME280;13680;49.936;11.344;2022-09-03T12:02:30;96473.28;;;30.51;26.73
25855;BME280;13680;49.936;11.344;2022-09-03T12:05:06;96476.78;;;30.10;25.78
25855;BME280;13680;49.936;11.344;2022-09-03T12:07:47;96473.72;;;29.87;26.19
25855;BME280;13680;49.936;11.344;2022-09-03T12:13:15;96481.22;;;28.84;27.91
25855;BME280;13680;49.936;11.344;2022-09-03T12:16:14;96468.78;;;29.13;27.79
25855;BME280;13680;49.936;11.344;2022-09-03T12:18:45;96459.16;;;28.61;28.36
25855;BME280;13680;49.936;11.344;2022-09-03T12:21:12;96462.78;;;28.57;28.01
25855;BME280;13680;49.936;11.344;2022-09-03T12:23:46;96476.34;;;29.09;27.80
25855;BME280;13680;49.936;11.344;2022-09-03T12:26:18;96464.88;;;29.10;28.29
25855;BME280;13680;49.936;11.344;2022-09-03T12:28:47;96459.84;;;29.21;27.40
25855;BME280;13680;49.936;11.344;2022-09-03T12:31:16;96458.47;;;29.13;28.84
25855;BME280;13680;49.936;11.344;2022-09-03T12:33:51;96465.41;;;28.85;27.50
25855;BME280;13680;49.936;11.344;2022-09-03T12:36:19;96456.81;;;29.16;29.04
25855;BME280;13680;49.936;11.344;2022-09-03T12:38:45;96447.06;;;29.28;27.51
25855;BME280;13680;49.936;11.344;2022-09-03T12:41:23;96452.47;;;29.68;27.47
25855;BME280;13680;49.936;11.344;2022-09-03T12:43:53;96443.09;;;29.62;27.73
25855;BME280;13680;49.936;11.344;2022-09-03T12:46:22;96457.91;;;29.38;28.19
25855;BME280;13680;49.936;11.344;2022-09-03T12:48:58;96462.41;;;29.49;27.90
25855;BME280;13680;49.936;11.344;2022-09-03T12:51:37;96463.09;;;28.83;29.30
25855;BME280;13680;49.936;11.344;2022-09-03T12:54:05;96464.34;;;28.58;29.07
25855;BME280;13680;49.936;11.344;2022-09-03T12:56:34;96451.78;;;28.74;29.34
25855;BME280;13680;49.936;11.344;2022-09-03T12:59:08;96446.75;;;28.29;29.90
25855;BME280;13680;49.936;11.344;2022-09-03T13:01:50;96451.88;;;28.50;29.45
25855;BME280;13680;49.936;11.344;2022-09-03T13:04:24;96450.16;;;28.77;29.29
25855;BME280;13680;49.936;11.344;2022-09-03T13:09:39;96441.91;;;28.93;29.60
25855;BME280;13680;49.936;11.344;2022-09-03T13:12:06;96440.44;;;28.88;29.21
25855;BME280;13680;49.936;11.344;2022-09-03T13:14:46;96454.63;;;28.70;29.71
25855;BME280;13680;49.936;11.344;2022-09-03T13:17:18;96444.50;;;29.00;29.02
25855;BME280;13680;49.936;11.344;2022-09-03T13:20:10;96446.50;;;29.16;29.11
25855;BME280;13680;49.936;11.344;2022-09-03T13:25:56;96438.22;;;29.82;28.33
25855;BME280;13680;49.936;11.344;2022-09-03T13:34:34;96435.38;;;29.86;28.76
25855;BME280;13680;49.936;11.344;2022-09-03T13:42:14;96432.16;;;29.05;30.32
25855;BME280;13680;49.936;11.344;2022-09-03T13:44:48;96441.22;;;29.05;30.68
25855;BME280;13680;49.936;11.344;2022-09-03T13:47:36;96446.56;;;28.80;31.52
25855;BME280;13680;49.936;11.344;2022-09-03T13:50:25;96448.25;;;28.13;31.25
25855;BME280;13680;49.936;11.344;2022-09-03T13:52:55;96449.56;;;28.05;31.27
25855;BME280;13680;49.936;11.344;2022-09-03T13:58:10;96444.81;;;27.82;32.15
25855;BME280;13680;49.936;11.344;2022-09-03T14:00:45;96441.25;;;27.81;32.70
25855;BME280;13680;49.936;11.344;2022-09-03T14:06:02;96431.53;;;27.97;33.23
25855;BME280;13680;49.936;11.344;2022-09-03T14:11:52;96432.44;;;28.34;31.78
25855;BME280;13680;49.936;11.344;2022-09-03T14:17:18;96429.88;;;28.43;31.47
25855;BME280;13680;49.936;11.344;2022-09-03T14:20:39;96426.75;;;28.41;31.29
25855;BME280;13680;49.936;11.344;2022-09-03T14:25:18;96424.31;;;28.03;32.81
25855;BME280;13680;49.936;11.344;2022-09-03T14:27:44;96424.13;;;27.70;33.43
25855;BME280;13680;49.936;11.344;2022-09-03T14:30:17;96423.38;;;27.66;33.79
25855;BME280;13680;49.936;11.344;2022-09-03T14:35:34;96429.75;;;27.11;34.82
25855;BME280;13680;49.936;11.344;2022-09-03T14:41:17;96439.31;;;26.72;35.71
25855;BME280;13680;49.936;11.344;2022-09-03T14:47:27;96442.50;;;26.71;36.44
25855;BME280;13680;49.936;11.344;2022-09-03T14:50:17;96444.66;;;26.56;37.19
25855;BME280;13680;49.936;11.344;2022-09-03T14:52:40;96445.56;;;26.45;36.99
25855;BME280;13680;49.936;11.344;2022-09-03T14:58:01;96445.16;;;26.47;37.46
25855;BME280;13680;49.936;11.344;2022-09-03T15:00:42;96441.88;;;26.25;38.38
25855;BME280;13680;49.936;11.344;2022-09-03T15:03:52;96445.69;;;25.96;38.22
25855;BME280;13680;49.936;11.344;2022-09-03T15:06:46;96443.88;;;25.79;38.40
25855;BME280;13680;49.936;11.344;2022-09-03T15:09:31;96439.00;;;25.97;37.90
25855;BME280;13680;49.936;11.344;2022-09-03T15:12:16;96438.47;;;26.13;37.96
25855;BME280;13680;49.936;11.344;2022-09-03T15:17:31;96435.81;;;26.41;37.40
25855;BME280;13680;49.936;11.344;2022-09-03T15:23:45;96434.84;;;26.20;38.38
25855;BME280;13680;49.936;11.344;2022-09-03T15:37:31;96430.22;;;26.10;38.57
25855;BME280;13680;49.936;11.344;2022-09-03T15:40:08;96427.13;;;26.08;37.95
25855;BME280;13680;49.936;11.344;2022-09-03T15:42:35;96430.59;;;26.12;38.92
25855;BME280;13680;49.936;11.344;2022-09-03T15:47:53;96430.72;;;26.36;38.62
25855;BME280;13680;49.936;11.344;2022-09-03T15:55:13;96441.16;;;26.21;38.19